Flight Track Log - Related Links

Times and Time Zones

All times are in EDT time to prevent confusion due to time zone crossing. See the SWA1015 flight status page for this flight to view local times or setup timezone preferences in your user account.

Time Position Orientation Groundspeed Altitude Reporting Facility
EDT Latitude Longitude Course Direction KTS MPH feet Rate Location/Type
Fri 09:44:43 AM 37.4167 -121.9833 67° East 187 215 2,600  Level Northern Cal TRACON
Fri 09:45:38 AM 37.4333 -121.9333 67° East 240 276 5,300 2,615 Climbing Northern Cal TRACON
Fri 09:47:19 AM 37.3519 -121.8411 138° Southeast 276 318 9,400 2,111 Climbing Oakland Center
Fri 09:48:20 AM 37.2769 -121.7569 138° Southeast 356 410 11,000 2,361 Climbing Oakland Center
Fri 09:49:21 AM 37.1925 -121.6597 137° Southeast 408 470 14,200 2,902 Climbing Oakland Center
Fri 09:50:22 AM 37.1050 -121.5628 139° Southeast 421 484 16,900 2,508 Climbing Oakland Center
Fri 09:51:23 AM 36.9947 -121.4417 139° Southeast 449 517 19,300 2,331 Climbing Oakland Center
Fri 09:52:23 AM 36.8969 -121.3317 138° Southeast 470 541 21,600 2,132 Climbing Oakland Center
Fri 09:53:24 AM 36.8050 -121.2314 139° Southeast 479 551 23,600 1,967 Climbing Oakland Center
Fri 09:54:25 AM 36.7017 -121.1183 139° Southeast 490 564 25,600 2,164 Climbing Oakland Center
Fri 09:55:26 AM 36.5994 -121.0044 138° Southeast 492 566 28,000 2,164 Climbing Oakland Center
Fri 09:56:27 AM 36.5019 -120.8878 136° Southeast 488 562 30,000 2,066 Climbing Oakland Center
Fri 09:57:28 AM 36.4214 -120.7525 126° Southeast 488 562 32,200 1,820 Climbing Oakland Center
Fri 09:58:29 AM 36.3386 -120.6253 129° Southeast 477 549 33,700 1,525 Climbing Oakland Center
Fri 09:59:30 AM 36.2372 -120.4678 129° Southeast 485 558 35,300 1,388 Climbing Oakland Center
Fri 10:00:30 AM 36.1517 -120.3344 128° Southeast 493 567 36,500 843 Climbing Oakland Center
Fri 10:01:31 AM 36.0667 -120.2075 130° Southeast 479 551 37,000 246 Climbing Oakland Center
Fri 10:02:32 AM 35.9853 -120.0819 129° Southeast 469 540 37,000  Level Oakland Center
Fri 10:03:33 AM 35.9014 -119.9542 129° Southeast 471 542 37,000  Level Oakland Center
Fri 10:04:34 AM 35.8178 -119.8264 129° Southeast 476 548 37,000 597 Level Oakland Center
Fri 10:06:34 AM 35.6500 -119.5711 129° Southeast 476 548 38,800 663 Climbing Los Angeles Center
Fri 10:07:35 AM 35.5661 -119.4453 129° Southeast 475 547 39,000 98 Climbing Los Angeles Center
Fri 10:08:37 AM 35.4969 -119.3078 122° Southeast 481 554 39,000  Level Los Angeles Center
Fri 10:09:38 AM 35.4394 -119.1594 115° Southeast 481 554 39,000  Level Los Angeles Center
Fri 10:10:40 AM 35.3800 -119.0117 116° Southeast 482 555 39,000  Level Los Angeles Center
Fri 10:11:41 AM 35.3217 -118.8628 116° Southeast 484 557 39,000  Level Los Angeles Center
Fri 10:12:43 AM 35.2617 -118.7136 116° Southeast 487 560 39,000  Level Los Angeles Center
Fri 10:13:44 AM 35.2031 -118.5644 116° Southeast 488 562 39,000  Level Los Angeles Center
Fri 10:14:46 AM 35.1375 -118.3986 116° Southeast 489 563 39,000  Level Los Angeles Center
Fri 10:15:47 AM 35.0781 -118.2525 116° Southeast 485 558 39,000  Level Los Angeles Center
Fri 10:16:49 AM 35.0183 -118.1053 116° Southeast 487 560 39,000  Level Los Angeles Center
Fri 10:17:50 AM 34.9583 -117.9581 116° Southeast 490 564 39,000  Level Los Angeles Center
Fri 10:18:52 AM 34.8853 -117.7803 117° Southeast 497 572 39,000  Level Los Angeles Center
Fri 10:19:53 AM 34.8258 -117.6331 116° Southeast 495 570 39,000  Level Los Angeles Center
Fri 10:20:55 AM 34.7644 -117.4858 117° Southeast 497 572 39,000  Level Los Angeles Center
Fri 10:21:56 AM 34.7031 -117.3372 117° Southeast 499 574 39,000  Level Los Angeles Center
Fri 10:22:58 AM 34.6411 -117.1878 117° Southeast 499 574 39,000  Level Los Angeles Center
Fri 10:23:59 AM 34.5786 -117.0375 117° Southeast 503 579 39,000  Level Los Angeles Center
Fri 10:25:01 AM 34.5169 -116.8872 116° Southeast 500 575 39,000  Level Los Angeles Center
Fri 10:26:03 AM 34.4392 -116.7033 117° Southeast 512 589 39,000  Level Los Angeles Center
Fri 10:27:04 AM 34.3747 -116.5514 117° Southeast 507 583 39,000  Level Los Angeles Center
Fri 10:28:06 AM 34.3103 -116.3944 116° Southeast 523 602 39,000  Level Los Angeles Center
Fri 10:29:07 AM 34.2436 -116.2419 118° Southeast 517 595 39,000  Level Los Angeles Center
Fri 10:30:09 AM 34.1783 -116.0878 117° Southeast 516 594 39,000  Level Los Angeles Center
Fri 10:31:11 AM 34.1022 -115.9164 118° Southeast 512 589 39,000  Level Los Angeles Center
Fri 10:32:12 AM 34.0350 -115.7586 117° Southeast 525 604 39,000  Level Los Angeles Center
Fri 10:33:14 AM 33.9678 -115.6058 118° Southeast 519 597 39,000  Level Los Angeles Center
Fri 10:34:16 AM 33.9008 -115.4528 118° Southeast 516 594 39,000  Level Los Angeles Center
Fri 10:35:17 AM 33.8342 -115.2994 118° Southeast 517 595 39,000  Level Los Angeles Center
Fri 10:36:19 AM 33.7847 -115.1361 110° East 519 597 39,000  Level Los Angeles Center
Fri 10:37:21 AM 33.7483 -114.9325 102° East 523 602 39,000  Level Los Angeles Center
Fri 10:38:22 AM 33.7181 -114.7633 102° East 520 598 39,000  Level Los Angeles Center
Fri 10:39:24 AM 33.6853 -114.5925 103° East 524 603 39,000  Level Los Angeles Center
Fri 10:40:26 AM 33.6514 -114.4228 103° East 524 603 39,000  Level Los Angeles Center
Fri 10:41:12 AM 33.6331 -114.3022 100° East 523 602 39,000  Level Albuquerque Center
Fri 10:42:14 AM 33.5997 -114.1317 103° East 521 600 39,000  Level Albuquerque Center
Fri 10:43:16 AM 33.5678 -113.9656 103° East 519 597 39,000  Level Albuquerque Center
Fri 10:44:18 AM 33.5281 -113.7672 103° East 515 593 39,000  Level Albuquerque Center
Fri 10:45:20 AM 33.4953 -113.6000 103° East 514 592 39,000  Level Albuquerque Center
Fri 10:46:21 AM 33.4631 -113.4339 103° East 513 590 39,000  Level Albuquerque Center
Fri 10:47:23 AM 33.4311 -113.2667 103° East 513 590 39,000  Level Albuquerque Center
Fri 10:48:25 AM 33.3978 -113.1025 104° East 510 587 39,000  Level Albuquerque Center
Fri 10:49:27 AM 33.3639 -112.9383 104° East 508 585 39,000  Level Albuquerque Center
Fri 10:50:29 AM 33.3317 -112.7750 103° East 506 582 39,000  Level Albuquerque Center
Fri 10:51:31 AM 33.2931 -112.5858 104° East 506 582 39,000  Level Albuquerque Center
Fri 10:52:33 AM 33.2592 -112.4253 104° East 504 580 39,000  Level Albuquerque Center
Fri 10:54:37 AM 33.1914 -112.0989 104° East 510 587 39,000  Level Albuquerque Center
Fri 10:55:39 AM 33.1511 -111.9047 104° East 508 585 39,000  Level Albuquerque Center
Fri 10:56:41 AM 33.1161 -111.7400 104° East 513 590 39,000  Level Albuquerque Center
Fri 10:57:43 AM 33.0811 -111.5772 104° East 511 588 39,000  Level Albuquerque Center
Fri 10:58:45 AM 33.0467 -111.4136 104° East 512 589 39,000  Level Albuquerque Center
Fri 10:59:47 AM 33.0106 -111.2494 105° East 514 592 39,000  Level Albuquerque Center
Fri 11:00:49 AM 32.9675 -111.0506 104° East 520 598 39,000  Level Albuquerque Center
Fri 11:01:51 AM 32.9303 -110.8847 105° East 521 600 39,000  Level Albuquerque Center
Fri 11:02:53 AM 32.8939 -110.7175 104° East 522 601 39,000  Level Albuquerque Center
Fri 11:03:55 AM 32.8578 -110.5547 105° East 521 600 39,000  Level Albuquerque Center
Fri 11:04:57 AM 32.8206 -110.3892 105° East 523 602 39,000  Level Albuquerque Center
Fri 11:05:59 AM 32.7753 -110.1906 105° East 524 603 39,000  Level Albuquerque Center
Fri 11:07:01 AM 32.7378 -110.0272 105° East 521 600 39,000  Level Albuquerque Center
Fri 11:08:03 AM 32.6956 -109.8600 107° East 529 609 39,000  Level Albuquerque Center
Fri 11:09:05 AM 32.6622 -109.6969 104° East 519 597 39,000  Level Albuquerque Center
Fri 11:10:07 AM 32.6200 -109.5281 106° East 535 616 39,000  Level Albuquerque Center
Fri 11:11:09 AM 32.5736 -109.3311 106° East 529 609 39,000  Level Albuquerque Center
Fri 11:12:11 AM 32.5347 -109.1647 105° East 530 610 39,000  Level Albuquerque Center
Fri 11:13:13 AM 32.4953 -108.9997 106° East 531 611 39,000  Level Albuquerque Center
Fri 11:14:15 AM 32.4558 -108.8328 106° East 534 615 39,000  Level Albuquerque Center
Fri 11:15:17 AM 32.4075 -108.6311 106° East 538 619 39,000  Level Albuquerque Center
Fri 11:16:19 AM 32.3672 -108.4639 106° East 538 619 39,000  Level Albuquerque Center
Fri 11:17:21 AM 32.3289 -108.3039 106° East 540 621 39,000  Level Albuquerque Center
Fri 11:18:23 AM 32.2783 -108.0994 106° East 542 624 39,000  Level Albuquerque Center
Fri 11:19:26 AM 32.2361 -107.9300 106° East 543 625 39,000  Level Albuquerque Center
Fri 11:20:28 AM 32.1958 -107.7622 106° East 538 619 39,000  Level Albuquerque Center
Fri 11:21:30 AM 32.1536 -107.5947 107° East 538 619 39,000  Level Albuquerque Center
Fri 11:22:32 AM 32.1119 -107.4281 106° East 536 617 39,000  Level Albuquerque Center
Fri 11:23:34 AM 32.0625 -107.2289 106° East 535 616 39,000  Level Albuquerque Center
Fri 11:24:36 AM 32.0200 -107.0633 107° East 534 615 39,000  Level Albuquerque Center
Fri 11:25:38 AM 31.9781 -106.8964 106° East 535 616 39,000  Level Albuquerque Center
Fri 11:26:40 AM 31.9342 -106.7331 108° East 531 611 39,000  Level Albuquerque Center
Fri 11:27:42 AM 31.8822 -106.5372 107° East 532 612 39,000  Level Albuquerque Center
Fri 11:28:44 AM 31.8403 -106.3708 106° East 532 612 39,000  Level Albuquerque Center
Fri 11:29:46 AM 31.8086 -106.2036 103° East 523 602 39,000  Level Albuquerque Center
Fri 11:30:48 AM 31.7864 -106.0358 99° East 521 600 39,000  Level Albuquerque Center
Fri 11:31:50 AM 31.7656 -105.8675 98° East 522 601 39,000  Level Albuquerque Center
Fri 11:32:52 AM 31.7453 -105.6981 98° East 522 601 39,000  Level Albuquerque Center
Fri 11:33:54 AM 31.7200 -105.4947 98° East 523 602 39,000  Level Albuquerque Center
Fri 11:34:56 AM 31.6986 -105.3247 98° East 525 604 39,000  Level Albuquerque Center
Fri 11:35:58 AM 31.6783 -105.1544 98° East 525 604 39,000  Level Albuquerque Center
Fri 11:37:00 AM 31.6569 -104.9836 98° East 526 605 39,000  Level Albuquerque Center
Fri 11:38:02 AM 31.6356 -104.8133 98° East 526 605 39,000  Level Albuquerque Center
Fri 11:39:04 AM 31.6133 -104.6428 99° East 527 606 39,000  Level Albuquerque Center
Fri 11:40:06 AM 31.5903 -104.4722 99° East 527 606 39,000  Level Albuquerque Center
Fri 11:41:08 AM 31.5642 -104.2678 98° East 528 608 39,000  Level Albuquerque Center
Fri 11:42:10 AM 31.5403 -104.0978 99° East 528 608 39,000  Level Albuquerque Center
Fri 11:43:12 AM 31.5175 -103.9272 99° East 528 608 39,000  Level Albuquerque Center
Fri 11:44:15 AM 31.4950 -103.7581 99° East 527 606 39,000  Level Albuquerque Center
Fri 11:45:17 AM 31.4719 -103.5878 99° East 529 609 39,000  Level Albuquerque Center
Fri 11:46:19 AM 31.4467 -103.4017 99° East 527 606 39,000  Level Albuquerque Center
Fri 11:47:21 AM 31.4269 -103.2317 98° East 529 609 39,000  Level Albuquerque Center
Fri 11:48:23 AM 31.4061 -103.0603 98° East 532 612 39,000  Level Albuquerque Center
Fri 11:49:25 AM 31.3839 -102.8911 99° East 531 611 39,000  Level Albuquerque Center
Fri 11:50:27 AM 31.3572 -102.6831 98° East 539 620 39,000  Level Albuquerque Center
Fri 11:51:29 AM 31.3358 -102.5103 98° East 539 620 39,000  Level Albuquerque Center
Fri 11:52:31 AM 31.3114 -102.3350 99° East 546 628 39,000  Level Albuquerque Center
Fri 11:53:33 AM 31.2892 -102.1603 98° East 548 631 39,000  Level Albuquerque Center
Fri 11:54:35 AM 31.2647 -101.9844 99° East 550 633 39,000  Level Albuquerque Center
Fri 11:55:37 AM 31.2414 -101.8086 99° East 550 633 39,000 -48 Level Albuquerque Center
Fri 11:56:39 AM 31.2128 -101.5967 99° East 552 635 38,900 -478 Descending Albuquerque Center
Fri 11:57:30 AM 31.1942 -101.4597 99° East 550 633 38,100 -903 Descending Houston Center
Fri 11:58:32 AM 31.1694 -101.2811 99° East 554 638 37,200 -919 Descending Houston Center
Fri 11:59:34 AM 31.1453 -101.1031 99° East 555 639 36,200 -968 Descending Houston Center
Fri 12:00:36 PM 31.1208 -100.9292 99° East 547 629 35,200 -581 Descending Houston Center
Fri 12:01:38 PM 31.0914 -100.7231 99° East 538 619 35,000 -194 Descending Houston Center
Fri 12:02:40 PM 31.0658 -100.5489 100° East 544 626 34,800 -532 Descending Houston Center
Fri 12:03:42 PM 31.0403 -100.3747 100° East 544 626 33,900 -919 Descending Houston Center
Fri 12:04:44 PM 31.0158 -100.2025 99° East 540 621 32,900 -960 Descending Houston Center
Fri 12:05:47 PM 30.9878 -100.0264 100° East 546 628 31,900 -960 Descending Houston Center
Fri 12:06:49 PM 30.9611 -99.8486 100° East 553 636 30,900 -919 Descending Houston Center
Fri 12:07:51 PM 30.9342 -99.6731 100° East 550 633 30,000 -1,016 Descending Houston Center
Fri 12:08:53 PM 30.9028 -99.4636 100° East 547 629 28,800 -1,065 Descending Houston Center
Fri 12:09:55 PM 30.8750 -99.2925 101° East 540 621 27,800 -968 Descending Houston Center
Fri 12:10:57 PM 30.8469 -99.1133 100° East 539 620 26,800 -1,016 Descending Houston Center
Fri 12:11:59 PM 30.8192 -98.9403 101° East 540 621 25,700 -1,887 Descending Houston Center
Fri 12:13:01 PM 30.7933 -98.7706 100° East 531 611 22,900 -2,710 Descending Houston Center
Fri 12:14:03 PM 30.7775 -98.6069 96° East 506 582 20,100 -2,795 Descending Houston Center
Fri 12:16:00 PM 30.7351 -98.3081 98° East  Level FlightAware Approximate
Fri 12:17:10 PM 30.7100 -98.1433 98° East 444 511 11,300  Level Houston Center
Fri 12:18:12 PM 30.6214 -98.0681 144° Southeast 395 455 10,400 -823 Descending Houston Center
Fri 12:19:14 PM 30.5456 -98.0053 145° Southeast 347 399 9,600 -1,113 Descending Houston Center
Fri 12:20:16 PM 30.4744 -97.9467 145° Southeast 321 369 8,100 -1,500 Descending Houston Center
Fri 12:21:18 PM 30.4008 -97.8917 147° Southeast 313 360 6,500 -1,016 Descending Houston Center
Fri 12:22:20 PM 30.3047 -97.8558 162° South 309 356 6,000 -240 Descending Houston Center
Fri 12:23:23 PM 30.2306 -97.8264 161° South 289 333 6,000 -288 Level Houston Center
Fri 12:24:25 PM 30.1608 -97.7994 162° South 268 308 5,400 -726 Descending Houston Center
Fri 12:25:27 PM 30.0925 -97.7717 161° South 261 300 4,500 -677 Descending Houston Center
Fri 12:26:29 PM 30.0172 -97.7453 163° South 258 297 4,000 -290 Descending Houston Center
Fri 12:27:31 PM 30.0192 -97.6817 88° East 195 224 3,900 -629 Descending Houston Center
Fri 12:28:33 PM 30.0622 -97.6758 North 160 184 2,700 -968 Descending Houston Center
Fri 12:29:35 PM 30.1064 -97.6761 360° North 156 180 1,900 -726 Descending Houston Center
Fri 12:30:37 PM 30.1414 -97.6778 358° North 138 159 1,200 -677 Descending Houston Center

Login

Don't have an account? Register now (free) for customized features, flight alerts, and more!